sensor_id;sensor_type;location;lat;lon;timestamp;P1;durP1;ratioP1;P2;durP2;ratioP2
79578;SDS011;69051;52.406;5.280;2023-06-22T00:01:13;11.45;;;6.10;;
79578;SDS011;69051;52.406;5.280;2023-06-22T00:03:40;10.13;;;5.55;;
79578;SDS011;69051;52.406;5.280;2023-06-22T00:06:06;11.85;;;5.95;;
79578;SDS011;69051;52.406;5.280;2023-06-22T00:08:33;15.05;;;6.35;;
79578;SDS011;69051;52.406;5.280;2023-06-22T00:10:59;12.95;;;5.80;;
79578;SDS011;69051;52.406;5.280;2023-06-22T00:13:25;10.88;;;5.40;;
79578;SDS011;69051;52.406;5.280;2023-06-22T00:15:52;14.82;;;5.72;;
79578;SDS011;69051;52.406;5.280;2023-06-22T00:18:18;10.80;;;5.45;;
79578;SDS011;69051;52.406;5.280;2023-06-22T00:20:45;11.00;;;5.25;;
79578;SDS011;69051;52.406;5.280;2023-06-22T00:23:11;12.60;;;5.80;;
79578;SDS011;69051;52.406;5.280;2023-06-22T00:25:40;12.68;;;5.55;;
79578;SDS011;69051;52.406;5.280;2023-06-22T00:28:06;11.52;;;6.07;;
79578;SDS011;69051;52.406;5.280;2023-06-22T00:30:34;13.60;;;7.20;;
79578;SDS011;69051;52.406;5.280;2023-06-22T00:33:00;16.92;;;6.53;;
79578;SDS011;69051;52.406;5.280;2023-06-22T00:35:27;15.35;;;7.72;;
79578;SDS011;69051;52.406;5.280;2023-06-22T00:37:56;16.40;;;7.45;;
79578;SDS011;69051;52.406;5.280;2023-06-22T00:40:27;13.55;;;7.53;;
79578;SDS011;69051;52.406;5.280;2023-06-22T00:42:54;15.07;;;7.20;;
79578;SDS011;69051;52.406;5.280;2023-06-22T00:45:22;16.58;;;9.00;;
79578;SDS011;69051;52.406;5.280;2023-06-22T00:47:50;17.67;;;8.52;;
79578;SDS011;69051;52.406;5.280;2023-06-22T00:50:21;21.13;;;8.77;;
79578;SDS011;69051;52.406;5.280;2023-06-22T00:52:51;19.98;;;10.15;;
79578;SDS011;69051;52.406;5.280;2023-06-22T00:55:19;18.95;;;10.38;;
79578;SDS011;69051;52.406;5.280;2023-06-22T00:57:46;25.38;;;12.55;;
79578;SDS011;69051;52.406;5.280;2023-06-22T01:00:16;20.13;;;11.77;;
79578;SDS011;69051;52.406;5.280;2023-06-22T01:02:46;25.75;;;13.98;;
79578;SDS011;69051;52.406;5.280;2023-06-22T01:05:13;27.40;;;15.38;;
79578;SDS011;69051;52.406;5.280;2023-06-22T01:13:17;29.33;;;16.17;;
79578;SDS011;69051;52.406;5.280;2023-06-22T01:16:49;33.72;;;17.42;;
79578;SDS011;69051;52.406;5.280;2023-06-22T01:18:57;43.50;;;18.70;;
79578;SDS011;69051;52.406;5.280;2023-06-22T01:21:28;31.35;;;16.95;;
79578;SDS011;69051;52.406;5.280;2023-06-22T01:26:44;34.38;;;19.02;;
79578;SDS011;69051;52.406;5.280;2023-06-22T01:29:16;31.42;;;17.33;;
79578;SDS011;69051;52.406;5.280;2023-06-22T01:31:43;33.50;;;17.60;;
79578;SDS011;69051;52.406;5.280;2023-06-22T01:34:10;29.95;;;16.75;;
79578;SDS011;69051;52.406;5.280;2023-06-22T01:36:38;31.10;;;16.95;;
79578;SDS011;69051;52.406;5.280;2023-06-22T01:39:05;33.90;;;17.25;;
79578;SDS011;69051;52.406;5.280;2023-06-22T01:41:34;32.30;;;17.98;;
79578;SDS011;69051;52.406;5.280;2023-06-22T01:44:03;31.05;;;17.48;;
79578;SDS011;69051;52.406;5.280;2023-06-22T01:46:32;29.70;;;17.42;;
79578;SDS011;69051;52.406;5.280;2023-06-22T01:48:59;29.58;;;17.83;;
79578;SDS011;69051;52.406;5.280;2023-06-22T01:51:26;33.33;;;17.67;;
79578;SDS011;69051;52.406;5.280;2023-06-22T01:53:52;33.47;;;17.63;;
79578;SDS011;69051;52.406;5.280;2023-06-22T01:56:19;29.58;;;16.83;;
79578;SDS011;69051;52.406;5.280;2023-06-22T01:58:48;31.92;;;18.05;;
79578;SDS011;69051;52.406;5.280;2023-06-22T02:01:19;36.40;;;19.73;;
79578;SDS011;69051;52.406;5.280;2023-06-22T02:03:49;33.85;;;18.98;;
79578;SDS011;69051;52.406;5.280;2023-06-22T02:06:27;34.25;;;18.77;;
79578;SDS011;69051;52.406;5.280;2023-06-22T02:09:02;33.72;;;19.13;;
79578;SDS011;69051;52.406;5.280;2023-06-22T02:11:29;33.85;;;18.77;;
79578;SDS011;69051;52.406;5.280;2023-06-22T02:13:56;37.10;;;19.40;;
79578;SDS011;69051;52.406;5.280;2023-06-22T02:16:24;35.90;;;18.77;;
79578;SDS011;69051;52.406;5.280;2023-06-22T02:18:51;32.95;;;18.48;;
79578;SDS011;69051;52.406;5.280;2023-06-22T02:21:18;37.47;;;18.60;;
79578;SDS011;69051;52.406;5.280;2023-06-22T02:23:45;32.67;;;18.20;;
79578;SDS011;69051;52.406;5.280;2023-06-22T02:26:12;38.42;;;20.42;;
79578;SDS011;69051;52.406;5.280;2023-06-22T02:28:39;38.28;;;20.50;;
79578;SDS011;69051;52.406;5.280;2023-06-22T02:31:05;38.15;;;20.25;;
79578;SDS011;69051;52.406;5.280;2023-06-22T02:33:32;38.53;;;18.63;;
79578;SDS011;69051;52.406;5.280;2023-06-22T02:35:58;36.65;;;20.75;;
79578;SDS011;69051;52.406;5.280;2023-06-22T02:38:24;37.47;;;21.23;;
79578;SDS011;69051;52.406;5.280;2023-06-22T02:40:51;37.60;;;20.98;;
79578;SDS011;69051;52.406;5.280;2023-06-22T02:43:17;40.83;;;21.45;;
79578;SDS011;69051;52.406;5.280;2023-06-22T02:45:44;38.10;;;20.80;;
79578;SDS011;69051;52.406;5.280;2023-06-22T02:48:10;34.92;;;20.90;;
79578;SDS011;69051;52.406;5.280;2023-06-22T02:50:37;36.33;;;19.60;;
79578;SDS011;69051;52.406;5.280;2023-06-22T02:53:03;40.92;;;21.58;;
79578;SDS011;69051;52.406;5.280;2023-06-22T02:55:30;40.35;;;21.10;;
79578;SDS011;69051;52.406;5.280;2023-06-22T02:57:57;35.50;;;19.80;;
79578;SDS011;69051;52.406;5.280;2023-06-22T03:00:25;34.40;;;20.30;;
79578;SDS011;69051;52.406;5.280;2023-06-22T03:02:57;36.70;;;20.67;;
79578;SDS011;69051;52.406;5.280;2023-06-22T03:05:24;39.58;;;21.67;;
79578;SDS011;69051;52.406;5.280;2023-06-22T03:07:50;37.10;;;21.92;;
79578;SDS011;69051;52.406;5.280;2023-06-22T03:10:17;36.50;;;20.77;;
79578;SDS011;69051;52.406;5.280;2023-06-22T03:12:43;40.17;;;22.92;;
79578;SDS011;69051;52.406;5.280;2023-06-22T03:15:11;36.85;;;21.80;;
79578;SDS011;69051;52.406;5.280;2023-06-22T03:17:38;37.65;;;20.80;;
79578;SDS011;69051;52.406;5.280;2023-06-22T03:20:06;37.05;;;21.45;;
79578;SDS011;69051;52.406;5.280;2023-06-22T03:22:35;36.17;;;21.17;;
79578;SDS011;69051;52.406;5.280;2023-06-22T03:25:02;38.88;;;20.42;;
79578;SDS011;69051;52.406;5.280;2023-06-22T03:27:29;33.78;;;19.88;;
79578;SDS011;69051;52.406;5.280;2023-06-22T03:29:57;37.72;;;19.60;;
79578;SDS011;69051;52.406;5.280;2023-06-22T03:32:23;36.53;;;20.17;;
79578;SDS011;69051;52.406;5.280;2023-06-22T03:34:50;34.63;;;20.05;;
79578;SDS011;69051;52.406;5.280;2023-06-22T03:37:16;33.85;;;19.85;;
79578;SDS011;69051;52.406;5.280;2023-06-22T03:39:43;32.70;;;18.58;;
79578;SDS011;69051;52.406;5.280;2023-06-22T03:42:10;34.65;;;19.10;;
79578;SDS011;69051;52.406;5.280;2023-06-22T03:44:36;33.08;;;18.77;;
79578;SDS011;69051;52.406;5.280;2023-06-22T03:47:04;33.72;;;18.58;;
79578;SDS011;69051;52.406;5.280;2023-06-22T03:49:30;37.60;;;19.80;;
79578;SDS011;69051;52.406;5.280;2023-06-22T03:51:57;33.58;;;19.95;;
79578;SDS011;69051;52.406;5.280;2023-06-22T03:54:23;36.80;;;20.35;;
79578;SDS011;69051;52.406;5.280;2023-06-22T03:56:50;33.80;;;17.73;;
79578;SDS011;69051;52.406;5.280;2023-06-22T03:59:16;32.40;;;19.35;;
79578;SDS011;69051;52.406;5.280;2023-06-22T04:01:43;32.25;;;18.80;;
79578;SDS011;69051;52.406;5.280;2023-06-22T04:04:09;35.60;;;19.73;;
79578;SDS011;69051;52.406;5.280;2023-06-22T04:06:36;32.92;;;18.67;;
79578;SDS011;69051;52.406;5.280;2023-06-22T04:09:02;32.75;;;18.95;;
79578;SDS011;69051;52.406;5.280;2023-06-22T04:11:29;38.13;;;21.38;;
79578;SDS011;69051;52.406;5.280;2023-06-22T04:13:55;33.40;;;19.92;;
79578;SDS011;69051;52.406;5.280;2023-06-22T04:16:22;33.67;;;20.10;;
79578;SDS011;69051;52.406;5.280;2023-06-22T04:18:48;40.38;;;21.65;;
79578;SDS011;69051;52.406;5.280;2023-06-22T04:21:15;42.53;;;22.33;;
79578;SDS011;69051;52.406;5.280;2023-06-22T04:23:42;37.65;;;20.67;;
79578;SDS011;69051;52.406;5.280;2023-06-22T04:26:09;35.28;;;20.52;;
79578;SDS011;69051;52.406;5.280;2023-06-22T04:28:36;40.42;;;21.38;;
79578;SDS011;69051;52.406;5.280;2023-06-22T04:31:02;37.67;;;22.48;;
79578;SDS011;69051;52.406;5.280;2023-06-22T04:33:29;43.78;;;23.33;;
79578;SDS011;69051;52.406;5.280;2023-06-22T04:35:56;42.88;;;25.38;;
79578;SDS011;69051;52.406;5.280;2023-06-22T04:38:23;45.60;;;24.75;;
79578;SDS011;69051;52.406;5.280;2023-06-22T04:40:50;49.08;;;26.08;;
79578;SDS011;69051;52.406;5.280;2023-06-22T04:43:18;47.70;;;25.63;;
79578;SDS011;69051;52.406;5.280;2023-06-22T04:45:45;51.95;;;27.55;;
79578;SDS011;69051;52.406;5.280;2023-06-22T04:48:11;54.42;;;26.63;;
79578;SDS011;69051;52.406;5.280;2023-06-22T04:50:42;48.60;;;28.73;;
79578;SDS011;69051;52.406;5.280;2023-06-22T04:53:08;47.45;;;27.98;;
79578;SDS011;69051;52.406;5.280;2023-06-22T04:55:39;50.08;;;29.35;;
79578;SDS011;69051;52.406;5.280;2023-06-22T04:58:11;50.08;;;28.35;;
79578;SDS011;69051;52.406;5.280;2023-06-22T05:00:39;54.22;;;27.73;;
79578;SDS011;69051;52.406;5.280;2023-06-22T05:03:05;52.30;;;28.63;;
79578;SDS011;69051;52.406;5.280;2023-06-22T05:05:43;53.97;;;28.27;;
79578;SDS011;69051;52.406;5.280;2023-06-22T05:08:10;52.08;;;28.73;;
79578;SDS011;69051;52.406;5.280;2023-06-22T05:10:36;55.30;;;30.02;;
79578;SDS011;69051;52.406;5.280;2023-06-22T05:13:10;50.13;;;30.83;;
79578;SDS011;69051;52.406;5.280;2023-06-22T05:15:37;52.15;;;29.17;;
79578;SDS011;69051;52.406;5.280;2023-06-22T05:18:06;55.72;;;31.00;;
79578;SDS011;69051;52.406;5.280;2023-06-22T05:20:32;54.45;;;29.30;;
79578;SDS011;69051;52.406;5.280;2023-06-22T05:23:02;56.45;;;30.25;;
79578;SDS011;69051;52.406;5.280;2023-06-22T05:25:28;52.50;;;29.05;;
79578;SDS011;69051;52.406;5.280;2023-06-22T05:27:56;53.00;;;28.95;;
79578;SDS011;69051;52.406;5.280;2023-06-22T05:30:23;57.40;;;30.10;;
79578;SDS011;69051;52.406;5.280;2023-06-22T05:32:49;51.25;;;29.67;;
79578;SDS011;69051;52.406;5.280;2023-06-22T05:35:16;52.80;;;31.98;;
79578;SDS011;69051;52.406;5.280;2023-06-22T05:37:42;50.67;;;28.73;;
79578;SDS011;69051;52.406;5.280;2023-06-22T05:40:09;50.80;;;29.98;;
79578;SDS011;69051;52.406;5.280;2023-06-22T05:42:36;56.90;;;30.42;;
79578;SDS011;69051;52.406;5.280;2023-06-22T05:45:02;57.72;;;31.92;;
79578;SDS011;69051;52.406;5.280;2023-06-22T05:47:29;56.38;;;30.48;;
79578;SDS011;69051;52.406;5.280;2023-06-22T05:49:56;55.08;;;30.42;;
79578;SDS011;69051;52.406;5.280;2023-06-22T05:52:22;59.05;;;31.00;;
79578;SDS011;69051;52.406;5.280;2023-06-22T05:54:49;62.22;;;31.30;;
79578;SDS011;69051;52.406;5.280;2023-06-22T05:57:15;55.85;;;30.33;;
79578;SDS011;69051;52.406;5.280;2023-06-22T05:59:42;49.03;;;30.23;;
79578;SDS011;69051;52.406;5.280;2023-06-22T06:02:08;56.15;;;28.70;;
79578;SDS011;69051;52.406;5.280;2023-06-22T06:04:35;55.30;;;31.33;;
79578;SDS011;69051;52.406;5.280;2023-06-22T06:07:01;51.65;;;29.33;;
79578;SDS011;69051;52.406;5.280;2023-06-22T06:09:28;61.58;;;31.42;;
79578;SDS011;69051;52.406;5.280;2023-06-22T06:11:54;59.95;;;32.22;;
79578;SDS011;69051;52.406;5.280;2023-06-22T06:14:21;53.15;;;31.52;;
79578;SDS011;69051;52.406;5.280;2023-06-22T06:16:48;53.63;;;31.92;;
79578;SDS011;69051;52.406;5.280;2023-06-22T06:19:15;57.78;;;29.80;;
79578;SDS011;69051;52.406;5.280;2023-06-22T06:21:41;58.28;;;32.42;;
79578;SDS011;69051;52.406;5.280;2023-06-22T06:24:08;55.80;;;29.30;;
79578;SDS011;69051;52.406;5.280;2023-06-22T06:26:34;47.70;;;28.83;;
79578;SDS011;69051;52.406;5.280;2023-06-22T06:29:01;56.92;;;32.05;;
79578;SDS011;69051;52.406;5.280;2023-06-22T06:31:31;56.88;;;31.85;;
79578;SDS011;69051;52.406;5.280;2023-06-22T06:33:57;49.08;;;27.45;;
79578;SDS011;69051;52.406;5.280;2023-06-22T06:36:24;49.50;;;30.42;;
79578;SDS011;69051;52.406;5.280;2023-06-22T06:38:50;52.85;;;30.83;;
79578;SDS011;69051;52.406;5.280;2023-06-22T06:41:17;50.50;;;29.35;;
79578;SDS011;69051;52.406;5.280;2023-06-22T06:43:43;51.85;;;30.60;;
79578;SDS011;69051;52.406;5.280;2023-06-22T06:46:10;48.65;;;29.35;;
79578;SDS011;69051;52.406;5.280;2023-06-22T06:48:37;49.55;;;29.50;;
79578;SDS011;69051;52.406;5.280;2023-06-22T06:51:03;49.53;;;28.98;;
79578;SDS011;69051;52.406;5.280;2023-06-22T06:53:30;44.25;;;28.02;;
79578;SDS011;69051;52.406;5.280;2023-06-22T06:55:56;48.28;;;28.95;;
79578;SDS011;69051;52.406;5.280;2023-06-22T06:58:23;45.22;;;27.83;;
79578;SDS011;69051;52.406;5.280;2023-06-22T07:00:49;44.83;;;28.17;;
79578;SDS011;69051;52.406;5.280;2023-06-22T07:03:16;42.53;;;26.92;;
79578;SDS011;69051;52.406;5.280;2023-06-22T07:05:42;39.88;;;26.23;;
79578;SDS011;69051;52.406;5.280;2023-06-22T07:08:09;40.35;;;26.02;;
79578;SDS011;69051;52.406;5.280;2023-06-22T07:10:36;37.05;;;24.30;;
79578;SDS011;69051;52.406;5.280;2023-06-22T07:13:03;42.38;;;28.30;;
79578;SDS011;69051;52.406;5.280;2023-06-22T07:15:29;42.75;;;25.20;;
79578;SDS011;69051;52.406;5.280;2023-06-22T07:17:56;38.72;;;24.70;;
79578;SDS011;69051;52.406;5.280;2023-06-22T07:20:22;46.20;;;26.45;;
79578;SDS011;69051;52.406;5.280;2023-06-22T07:22:49;38.83;;;25.20;;
79578;SDS011;69051;52.406;5.280;2023-06-22T07:25:15;35.75;;;22.90;;
79578;SDS011;69051;52.406;5.280;2023-06-22T07:27:44;39.60;;;23.83;;
79578;SDS011;69051;52.406;5.280;2023-06-22T07:30:12;37.50;;;22.33;;
79578;SDS011;69051;52.406;5.280;2023-06-22T07:32:39;33.03;;;20.05;;
79578;SDS011;69051;52.406;5.280;2023-06-22T07:35:06;32.58;;;20.20;;
79578;SDS011;69051;52.406;5.280;2023-06-22T07:37:33;35.60;;;23.02;;
79578;SDS011;69051;52.406;5.280;2023-06-22T07:40:01;34.55;;;21.70;;
79578;SDS011;69051;52.406;5.280;2023-06-22T07:42:30;35.92;;;21.42;;
79578;SDS011;69051;52.406;5.280;2023-06-22T07:44:59;30.55;;;18.98;;
79578;SDS011;69051;52.406;5.280;2023-06-22T07:47:26;33.63;;;19.65;;
79578;SDS011;69051;52.406;5.280;2023-06-22T07:49:54;36.33;;;18.63;;
79578;SDS011;69051;52.406;5.280;2023-06-22T07:52:24;28.23;;;18.13;;
79578;SDS011;69051;52.406;5.280;2023-06-22T07:54:51;28.83;;;17.60;;
79578;SDS011;69051;52.406;5.280;2023-06-22T07:57:18;27.02;;;16.67;;
79578;SDS011;69051;52.406;5.280;2023-06-22T07:59:45;26.60;;;17.58;;
79578;SDS011;69051;52.406;5.280;2023-06-22T08:02:12;25.75;;;15.43;;
79578;SDS011;69051;52.406;5.280;2023-06-22T08:04:38;28.98;;;15.70;;
79578;SDS011;69051;52.406;5.280;2023-06-22T08:07:05;27.48;;;16.08;;
79578;SDS011;69051;52.406;5.280;2023-06-22T08:09:32;29.17;;;17.08;;
79578;SDS011;69051;52.406;5.280;2023-06-22T08:11:59;28.42;;;17.15;;
79578;SDS011;69051;52.406;5.280;2023-06-22T08:14:26;30.35;;;18.67;;
79578;SDS011;69051;52.406;5.280;2023-06-22T08:16:53;27.90;;;15.77;;
79578;SDS011;69051;52.406;5.280;2023-06-22T08:19:19;24.30;;;14.52;;
79578;SDS011;69051;52.406;5.280;2023-06-22T08:21:46;24.83;;;15.32;;
79578;SDS011;69051;52.406;5.280;2023-06-22T08:24:12;26.30;;;16.25;;
79578;SDS011;69051;52.406;5.280;2023-06-22T08:26:39;26.42;;;16.05;;
79578;SDS011;69051;52.406;5.280;2023-06-22T08:29:05;23.85;;;14.65;;
79578;SDS011;69051;52.406;5.280;2023-06-22T08:31:32;23.80;;;14.82;;
79578;SDS011;69051;52.406;5.280;2023-06-22T08:34:01;23.77;;;15.98;;
79578;SDS011;69051;52.406;5.280;2023-06-22T08:36:28;26.00;;;15.48;;
79578;SDS011;69051;52.406;5.280;2023-06-22T08:39:01;25.65;;;14.20;;
79578;SDS011;69051;52.406;5.280;2023-06-22T08:41:29;24.08;;;13.63;;
79578;SDS011;69051;52.406;5.280;2023-06-22T08:43:56;27.20;;;14.88;;
79578;SDS011;69051;52.406;5.280;2023-06-22T08:46:22;24.55;;;13.95;;
79578;SDS011;69051;52.406;5.280;2023-06-22T08:48:56;27.25;;;13.95;;
79578;SDS011;69051;52.406;5.280;2023-06-22T08:51:24;23.75;;;15.98;;
79578;SDS011;69051;52.406;5.280;2023-06-22T08:53:50;22.65;;;12.35;;
79578;SDS011;69051;52.406;5.280;2023-06-22T08:56:17;28.02;;;14.15;;
79578;SDS011;69051;52.406;5.280;2023-06-22T08:58:44;22.05;;;13.10;;
79578;SDS011;69051;52.406;5.280;2023-06-22T09:01:10;24.13;;;13.38;;
79578;SDS011;69051;52.406;5.280;2023-06-22T09:03:37;17.75;;;10.70;;
79578;SDS011;69051;52.406;5.280;2023-06-22T09:06:04;24.08;;;11.88;;
79578;SDS011;69051;52.406;5.280;2023-06-22T09:08:30;20.67;;;11.98;;
79578;SDS011;69051;52.406;5.280;2023-06-22T09:10:57;21.60;;;14.70;;
79578;SDS011;69051;52.406;5.280;2023-06-22T09:13:23;19.35;;;10.48;;
79578;SDS011;69051;52.406;5.280;2023-06-22T09:15:50;17.88;;;10.80;;
79578;SDS011;69051;52.406;5.280;2023-06-22T09:18:16;16.73;;;11.07;;
79578;SDS011;69051;52.406;5.280;2023-06-22T09:20:43;19.70;;;11.38;;
79578;SDS011;69051;52.406;5.280;2023-06-22T09:23:09;22.40;;;10.90;;
79578;SDS011;69051;52.406;5.280;2023-06-22T09:25:36;18.92;;;9.40;;
79578;SDS011;69051;52.406;5.280;2023-06-22T09:28:02;17.80;;;10.23;;
79578;SDS011;69051;52.406;5.280;2023-06-22T09:30:29;16.77;;;8.98;;
79578;SDS011;69051;52.406;5.280;2023-06-22T09:32:56;20.25;;;10.20;;
79578;SDS011;69051;52.406;5.280;2023-06-22T09:35:22;15.45;;;9.07;;
79578;SDS011;69051;52.406;5.280;2023-06-22T09:37:49;12.85;;;8.45;;
79578;SDS011;69051;52.406;5.280;2023-06-22T09:40:15;14.98;;;9.35;;
79578;SDS011;69051;52.406;5.280;2023-06-22T09:42:43;16.17;;;8.02;;
79578;SDS011;69051;52.406;5.280;2023-06-22T09:45:09;20.13;;;9.18;;
79578;SDS011;69051;52.406;5.280;2023-06-22T09:47:36;14.50;;;9.18;;
79578;SDS011;69051;52.406;5.280;2023-06-22T09:50:03;14.38;;;8.98;;
79578;SDS011;69051;52.406;5.280;2023-06-22T09:52:31;16.50;;;9.77;;
79578;SDS011;69051;52.406;5.280;2023-06-22T09:55:12;14.90;;;8.80;;
79578;SDS011;69051;52.406;5.280;2023-06-22T09:57:41;16.35;;;8.10;;
79578;SDS011;69051;52.406;5.280;2023-06-22T10:00:08;16.20;;;10.00;;
79578;SDS011;69051;52.406;5.280;2023-06-22T10:02:35;19.98;;;9.40;;
79578;SDS011;69051;52.406;5.280;2023-06-22T10:05:02;18.15;;;10.95;;
79578;SDS011;69051;52.406;5.280;2023-06-22T10:07:29;18.48;;;12.63;;
79578;SDS011;69051;52.406;5.280;2023-06-22T10:09:56;17.60;;;11.10;;
79578;SDS011;69051;52.406;5.280;2023-06-22T10:12:22;18.75;;;12.00;;
79578;SDS011;69051;52.406;5.280;2023-06-22T10:14:49;20.80;;;13.07;;
79578;SDS011;69051;52.406;5.280;2023-06-22T10:17:16;19.45;;;12.32;;
79578;SDS011;69051;52.406;5.280;2023-06-22T10:19:42;20.98;;;13.32;;
79578;SDS011;69051;52.406;5.280;2023-06-22T10:22:09;18.77;;;11.80;;
79578;SDS011;69051;52.406;5.280;2023-06-22T10:24:35;19.85;;;12.80;;
79578;SDS011;69051;52.406;5.280;2023-06-22T10:27:02;21.05;;;12.18;;
79578;SDS011;69051;52.406;5.280;2023-06-22T10:29:29;23.48;;;13.32;;
79578;SDS011;69051;52.406;5.280;2023-06-22T10:31:55;20.80;;;12.93;;
79578;SDS011;69051;52.406;5.280;2023-06-22T10:34:22;25.13;;;13.90;;
79578;SDS011;69051;52.406;5.280;2023-06-22T10:36:48;18.60;;;12.77;;
79578;SDS011;69051;52.406;5.280;2023-06-22T10:39:15;22.70;;;12.90;;
79578;SDS011;69051;52.406;5.280;2023-06-22T10:41:41;22.25;;;13.18;;
79578;SDS011;69051;52.406;5.280;2023-06-22T10:44:08;21.33;;;13.35;;
79578;SDS011;69051;52.406;5.280;2023-06-22T10:46:35;20.45;;;11.73;;
79578;SDS011;69051;52.406;5.280;2023-06-22T10:49:03;20.23;;;11.50;;
79578;SDS011;69051;52.406;5.280;2023-06-22T10:51:30;21.38;;;13.02;;
79578;SDS011;69051;52.406;5.280;2023-06-22T10:53:57;23.75;;;14.10;;
79578;SDS011;69051;52.406;5.280;2023-06-22T10:56:24;26.88;;;14.10;;
79578;SDS011;69051;52.406;5.280;2023-06-22T10:58:50;23.85;;;13.50;;
79578;SDS011;69051;52.406;5.280;2023-06-22T11:01:17;22.95;;;14.27;;
79578;SDS011;69051;52.406;5.280;2023-06-22T11:04:01;25.08;;;14.20;;
79578;SDS011;69051;52.406;5.280;2023-06-22T11:06:28;21.45;;;13.18;;
79578;SDS011;69051;52.406;5.280;2023-06-22T11:08:55;21.33;;;13.55;;
79578;SDS011;69051;52.406;5.280;2023-06-22T11:11:37;22.83;;;13.07;;
79578;SDS011;69051;52.406;5.280;2023-06-22T11:14:03;18.23;;;12.13;;
79578;SDS011;69051;52.406;5.280;2023-06-22T11:16:30;19.95;;;13.45;;
79578;SDS011;69051;52.406;5.280;2023-06-22T11:18:56;21.15;;;14.32;;
79578;SDS011;69051;52.406;5.280;2023-06-22T11:21:23;23.00;;;13.90;;
79578;SDS011;69051;52.406;5.280;2023-06-22T11:23:49;20.13;;;13.43;;
79578;SDS011;69051;52.406;5.280;2023-06-22T11:26:16;25.08;;;13.35;;
79578;SDS011;69051;52.406;5.280;2023-06-22T11:28:43;21.17;;;14.13;;
79578;SDS011;69051;52.406;5.280;2023-06-22T11:31:09;25.33;;;15.55;;
79578;SDS011;69051;52.406;5.280;2023-06-22T11:33:51;21.05;;;14.30;;
79578;SDS011;69051;52.406;5.280;2023-06-22T11:36:18;24.17;;;14.85;;
79578;SDS011;69051;52.406;5.280;2023-06-22T11:38:44;20.58;;;13.32;;
79578;SDS011;69051;52.406;5.280;2023-06-22T11:41:11;21.67;;;13.10;;
79578;SDS011;69051;52.406;5.280;2023-06-22T11:43:37;21.88;;;13.35;;
79578;SDS011;69051;52.406;5.280;2023-06-22T11:46:04;21.05;;;14.43;;
79578;SDS011;69051;52.406;5.280;2023-06-22T11:48:30;23.45;;;13.07;;
79578;SDS011;69051;52.406;5.280;2023-06-22T11:50:57;21.77;;;12.70;;
79578;SDS011;69051;52.406;5.280;2023-06-22T11:53:26;22.25;;;13.23;;
79578;SDS011;69051;52.406;5.280;2023-06-22T11:55:53;16.80;;;11.60;;
79578;SDS011;69051;52.406;5.280;2023-06-22T11:58:20;16.85;;;11.00;;
79578;SDS011;69051;52.406;5.280;2023-06-22T12:00:48;14.13;;;8.35;;
79578;SDS011;69051;52.406;5.280;2023-06-22T12:03:17;13.38;;;7.95;;
79578;SDS011;69051;52.406;5.280;2023-06-22T12:05:44;12.13;;;6.93;;
79578;SDS011;69051;52.406;5.280;2023-06-22T12:08:11;14.80;;;7.70;;
79578;SDS011;69051;52.406;5.280;2023-06-22T12:10:38;11.35;;;5.93;;
79578;SDS011;69051;52.406;5.280;2023-06-22T12:13:04;10.07;;;5.45;;
79578;SDS011;69051;52.406;5.280;2023-06-22T12:15:31;12.38;;;5.57;;
79578;SDS011;69051;52.406;5.280;2023-06-22T12:17:57;11.10;;;4.57;;
79578;SDS011;69051;52.406;5.280;2023-06-22T12:20:24;7.85;;;3.65;;
79578;SDS011;69051;52.406;5.280;2023-06-22T12:22:51;8.80;;;4.03;;
79578;SDS011;69051;52.406;5.280;2023-06-22T12:25:20;8.15;;;4.40;;
79578;SDS011;69051;52.406;5.280;2023-06-22T12:27:46;12.50;;;4.72;;
79578;SDS011;69051;52.406;5.280;2023-06-22T12:30:12;8.68;;;4.45;;
79578;SDS011;69051;52.406;5.280;2023-06-22T12:32:39;10.23;;;5.38;;
79578;SDS011;69051;52.406;5.280;2023-06-22T12:35:06;11.30;;;5.07;;
79578;SDS011;69051;52.406;5.280;2023-06-22T12:37:38;10.05;;;5.30;;
79578;SDS011;69051;52.406;5.280;2023-06-22T12:40:04;11.68;;;5.93;;
79578;SDS011;69051;52.406;5.280;2023-06-22T12:42:31;11.13;;;6.20;;
79578;SDS011;69051;52.406;5.280;2023-06-22T12:44:58;9.82;;;5.55;;
79578;SDS011;69051;52.406;5.280;2023-06-22T12:47:24;12.65;;;5.50;;
79578;SDS011;69051;52.406;5.280;2023-06-22T12:49:51;13.43;;;5.78;;
79578;SDS011;69051;52.406;5.280;2023-06-22T12:52:17;11.02;;;5.63;;
79578;SDS011;69051;52.406;5.280;2023-06-22T12:54:44;9.32;;;5.78;;
79578;SDS011;69051;52.406;5.280;2023-06-22T12:57:21;10.70;;;5.90;;
79578;SDS011;69051;52.406;5.280;2023-06-22T12:59:47;13.18;;;7.25;;
79578;SDS011;69051;52.406;5.280;2023-06-22T13:02:14;11.93;;;6.25;;
79578;SDS011;69051;52.406;5.280;2023-06-22T13:04:40;16.30;;;6.43;;
79578;SDS011;69051;52.406;5.280;2023-06-22T13:07:07;12.35;;;6.47;;
79578;SDS011;69051;52.406;5.280;2023-06-22T13:09:47;12.27;;;6.55;;
79578;SDS011;69051;52.406;5.280;2023-06-22T13:12:17;10.32;;;6.20;;
79578;SDS011;69051;52.406;5.280;2023-06-22T13:14:46;14.18;;;6.90;;
79578;SDS011;69051;52.406;5.280;2023-06-22T13:17:13;13.07;;;6.57;;
79578;SDS011;69051;52.406;5.280;2023-06-22T13:19:40;12.50;;;6.53;;
79578;SDS011;69051;52.406;5.280;2023-06-22T13:22:26;13.50;;;7.32;;
79578;SDS011;69051;52.406;5.280;2023-06-22T13:24:57;14.38;;;7.25;;
79578;SDS011;69051;52.406;5.280;2023-06-22T13:27:24;13.05;;;7.22;;
79578;SDS011;69051;52.406;5.280;2023-06-22T13:29:50;14.60;;;7.90;;
79578;SDS011;69051;52.406;5.280;2023-06-22T13:32:18;11.77;;;7.57;;
79578;SDS011;69051;52.406;5.280;2023-06-22T13:34:45;20.08;;;7.72;;
79578;SDS011;69051;52.406;5.280;2023-06-22T13:37:12;12.65;;;7.55;;
79578;SDS011;69051;52.406;5.280;2023-06-22T13:39:38;11.07;;;7.05;;
79578;SDS011;69051;52.406;5.280;2023-06-22T13:42:05;12.18;;;7.53;;
79578;SDS011;69051;52.406;5.280;2023-06-22T13:44:31;14.55;;;6.80;;
79578;SDS011;69051;52.406;5.280;2023-06-22T13:46:58;15.10;;;7.45;;
79578;SDS011;69051;52.406;5.280;2023-06-22T13:49:25;13.15;;;7.20;;
79578;SDS011;69051;52.406;5.280;2023-06-22T13:51:52;12.48;;;7.63;;
79578;SDS011;69051;52.406;5.280;2023-06-22T13:54:18;13.73;;;7.50;;
79578;SDS011;69051;52.406;5.280;2023-06-22T13:56:47;12.88;;;6.88;;
79578;SDS011;69051;52.406;5.280;2023-06-22T13:59:14;12.05;;;6.72;;
79578;SDS011;69051;52.406;5.280;2023-06-22T14:01:40;12.25;;;6.88;;
79578;SDS011;69051;52.406;5.280;2023-06-22T14:04:08;14.27;;;7.30;;
79578;SDS011;69051;52.406;5.280;2023-06-22T14:06:34;12.45;;;7.28;;
79578;SDS011;69051;52.406;5.280;2023-06-22T14:09:01;12.15;;;6.97;;
79578;SDS011;69051;52.406;5.280;2023-06-22T14:11:27;11.57;;;6.45;;
79578;SDS011;69051;52.406;5.280;2023-06-22T14:13:54;13.45;;;7.10;;
79578;SDS011;69051;52.406;5.280;2023-06-22T14:16:20;10.93;;;7.38;;
79578;SDS011;69051;52.406;5.280;2023-06-22T14:18:47;12.55;;;7.40;;
79578;SDS011;69051;52.406;5.280;2023-06-22T14:21:14;14.68;;;7.82;;
79578;SDS011;69051;52.406;5.280;2023-06-22T14:23:40;12.30;;;7.40;;
79578;SDS011;69051;52.406;5.280;2023-06-22T14:26:06;15.32;;;8.20;;
79578;SDS011;69051;52.406;5.280;2023-06-22T14:28:33;11.90;;;7.68;;
79578;SDS011;69051;52.406;5.280;2023-06-22T14:30:59;12.90;;;8.05;;
79578;SDS011;69051;52.406;5.280;2023-06-22T14:33:27;13.90;;;8.60;;
79578;SDS011;69051;52.406;5.280;2023-06-22T14:35:53;13.23;;;8.20;;